Time;durP1;ratioP1;P1;durP2;ratioP2;P2;SDS_P1;SDS_P2;PMS_P1;PMS_P2;Temp;Humidity;BMP_temperature;BMP_pressure;BME280_temperature;BME280_humidity;BME280_pressure;Samples;Min_cycle;Max_cycle;Signal;HPM_P1;HPM_P2
2022/08/10 00:00:22;;;;;;;499.73;454.67;;;;;;;27.41;39.41;99463.75;273027;35;8557;-71
2022/08/10 00:02:08;;;;;;;456.60;411.04;;;;;;;27.42;39.76;99460.06;2485051;27;20540;-72
2022/08/10 00:02:19;;;;;;;493.90;448.93;;;;;;;27.42;39.60;99460.06;351851;28;1261;-73
2022/08/10 00:02:29;;;;;;;491.20;446.33;;;;;;;27.42;39.70;99453.84;350817;28;850;-72
2022/08/10 00:02:40;;;;;;;492.02;447.38;;;;;;;27.41;39.66;99463.75;349195;28;1215;-72
2022/08/10 00:02:52;;;;;;;493.90;449.23;;;;;;;27.42;39.70;99457.38;349358;28;883;-72
2022/08/10 00:03:06;;;;;;;494.38;449.65;;;;;;;27.42;39.68;99460.06;349890;28;911;-72
2022/08/10 00:03:16;;;;;;;492.60;447.95;;;;;;;27.42;39.12;99462.75;350843;28;954;-72
2022/08/10 00:03:27;;;;;;;491.60;446.80;;;;;;;27.43;39.28;99459.06;347400;28;3864;-72
2022/08/10 00:03:37;;;;;;;497.03;452.10;;;;;;;27.42;39.61;99460.06;345633;28;4908;-72
2022/08/10 00:03:48;;;;;;;503.00;457.90;;;;;;;27.41;39.25;99458.38;346354;28;1700;-72
2022/08/10 00:03:58;;;;;;;505.93;460.73;;;;;;;27.41;39.17;99458.38;347828;28;2278;-72
2022/08/10 00:04:09;;;;;;;503.40;458.17;;;;;;;27.40;39.54;99462.09;348972;28;3186;-72
2022/08/10 00:04:22;;;;;;;499.60;454.50;;;;;;;27.42;39.41;99460.06;349126;28;935;-72
2022/08/10 00:04:32;;;;;;;499.88;454.95;;;;;;;27.41;39.29;99460.22;350382;28;1491;-72
2022/08/10 00:04:43;;;;;;;497.47;452.67;;;;;;;27.41;39.69;99455.69;349348;28;797;-72
2022/08/10 00:04:53;;;;;;;495.80;451.05;;;;;;;27.42;39.63;99459.22;350626;28;944;-72
2022/08/10 00:05:04;;;;;;;499.00;454.20;;;;;;;27.43;39.45;99455.53;350835;28;772;-72
2022/08/10 00:05:14;;;;;;;491.67;447.15;;;;;;;27.43;39.54;99458.22;347747;28;1621;-72
2022/08/10 00:05:25;;;;;;;493.73;449.10;;;;;;;27.43;39.36;99459.06;347908;28;1258;-72
2022/08/10 00:05:36;;;;;;;495.10;450.23;;;;;;;27.43;39.46;99460.91;348991;28;1050;-71
2022/08/10 00:05:47;;;;;;;499.75;454.60;;;;;;;27.43;39.68;99456.38;347932;28;915;-71
2022/08/10 00:05:57;;;;;;;501.37;456.13;;;;;;;27.43;39.36;99460.91;346235;28;1169;-71
2022/08/10 00:06:07;;;;;;;498.00;452.92;;;;;;;27.42;39.29;99460.06;346491;28;1220;-71
2022/08/10 00:06:18;;;;;;;497.43;452.50;;;;;;;27.42;39.65;99462.75;346371;28;876;-71
2022/08/10 00:06:28;;;;;;;491.08;446.20;;;;;;;27.41;39.28;99455.69;346483;28;1074;-71
2022/08/10 00:06:39;;;;;;;491.63;447.10;;;;;;;27.42;39.55;99460.06;343648;28;1253;-71
2022/08/10 00:06:52;;;;;;;490.07;445.60;;;;;;;27.41;39.30;99453.00;343663;28;939;-71
2022/08/10 00:07:03;;;;;;;491.92;447.38;;;;;;;27.41;39.65;99465.63;344901;28;1414;-72
2022/08/10 00:07:13;;;;;;;492.87;448.17;;;;;;;27.41;39.17;99469.13;343760;28;1433;-72
2022/08/10 00:07:23;;;;;;;497.17;452.38;;;;;;;27.39;39.42;99455.03;344028;28;832;-72
2022/08/10 00:07:34;;;;;;;494.73;450.00;;;;;;;27.39;39.36;99464.94;341315;28;913;-72
2022/08/10 00:07:44;;;;;;;499.63;454.75;;;;;;;27.38;39.66;99458.72;342291;28;1214;-72
2022/08/10 00:07:54;;;;;;;501.13;456.20;;;;;;;27.37;39.61;99457.06;343800;28;865;-72
2022/08/10 00:08:05;;;;;;;496.83;451.93;;;;;;;27.36;39.37;99455.38;344013;28;1126;-72
2022/08/10 00:08:15;;;;;;;491.85;447.27;;;;;;;27.37;39.73;99457.06;342224;28;1209;-72
2022/08/10 00:08:26;;;;;;;486.80;442.47;;;;;;;27.37;39.65;99457.06;342490;28;1210;-72
2022/08/10 00:08:36;;;;;;;494.60;450.20;;;;;;;27.37;39.71;99461.59;342825;28;1254;-72
2022/08/10 00:08:46;;;;;;;497.90;453.33;;;;;;;27.38;39.80;99456.03;342474;28;1369;-72
2022/08/10 00:08:57;;;;;;;501.80;457.07;;;;;;;27.38;39.47;99458.72;341077;28;960;-72
2022/08/10 00:09:07;;;;;;;495.70;451.10;;;;;;;27.37;39.71;99457.06;342283;28;844;-72
2022/08/10 00:09:18;;;;;;;494.77;450.20;;;;;;;27.38;40.03;99458.72;340605;28;885;-72
2022/08/10 00:09:28;;;;;;;494.63;450.00;;;;;;;27.39;39.80;99460.41;341297;28;1040;-72
2022/08/10 00:09:38;;;;;;;496.37;451.50;;;;;;;27.38;39.56;99463.28;342020;28;1649;-71
2022/08/10 00:09:49;;;;;;;498.77;453.83;;;;;;;27.38;39.72;99458.72;342548;28;973;-71
2022/08/10 00:09:59;;;;;;;493.23;448.13;;;;;;;27.36;40.03;99455.38;339389;28;1570;-72
2022/08/10 00:10:10;;;;;;;494.80;449.60;;;;;;;27.37;39.87;99459.75;337545;29;1037;-72
2022/08/10 00:10:22;;;;;;;495.45;450.17;;;;;;;27.36;40.05;99455.38;338710;29;1380;-72
2022/08/10 00:10:32;;;;;;;495.23;450.23;;;;;;;27.36;39.61;99460.75;339089;28;1555;-72
2022/08/10 00:10:42;;;;;;;494.30;449.30;;;;;;;27.35;40.02;99456.38;338352;28;1649;-72
2022/08/10 00:10:53;;;;;;;491.70;446.90;;;;;;;27.35;40.07;99453.69;341240;28;1083;-72
2022/08/10 00:11:04;;;;;;;489.90;445.00;;;;;;;27.36;39.53;99463.44;339979;28;1324;-72
2022/08/10 00:11:14;;;;;;;486.05;441.38;;;;;;;27.36;39.90;99451.84;342212;28;1037;-72
2022/08/10 00:11:25;;;;;;;488.13;443.47;;;;;;;27.37;39.75;99456.22;341050;28;1173;-72
2022/08/10 00:11:35;;;;;;;492.95;448.17;;;;;;;27.35;39.88;99459.06;338730;28;1071;-72
2022/08/10 00:11:45;;;;;;;496.13;451.10;;;;;;;27.35;40.13;99455.56;337054;29;1203;-72
2022/08/10 00:11:56;;;;;;;496.23;451.08;;;;;;;27.33;40.22;99449.50;337025;29;1467;-72
2022/08/10 00:12:07;;;;;;;497.23;451.93;;;;;;;27.33;40.03;99453.03;335088;29;1503;-72
2022/08/10 00:12:18;;;;;;;500.02;454.67;;;;;;;27.34;40.22;99456.56;335262;29;1866;-72
2022/08/10 00:12:28;;;;;;;504.27;458.88;;;;;;;27.34;39.66;99462.78;336718;29;1758;-72
2022/08/10 00:12:39;;;;;;;506.70;461.50;;;;;;;27.34;39.69;99454.72;333552;29;4046;-72
2022/08/10 00:12:50;;;;;;;506.37;461.20;;;;;;;27.33;40.11;99450.34;331540;29;4672;-72
2022/08/10 00:13:00;;;;;;;503.38;458.35;;;;;;;27.34;39.62;99453.88;330279;29;2550;-72
2022/08/10 00:13:11;;;;;;;494.92;450.08;;;;;;;27.36;39.95;99455.38;330299;29;1666;-72
2022/08/10 00:13:22;;;;;;;491.13;446.50;;;;;;;27.36;39.59;99454.53;332507;29;2739;-72
2022/08/10 00:13:32;;;;;;;489.48;444.88;;;;;;;27.36;39.87;99458.06;329489;29;1007;-72
2022/08/10 00:13:43;;;;;;;485.13;440.67;;;;;;;27.36;40.13;99459.91;329499;29;1301;-72
2022/08/10 00:13:53;;;;;;;480.30;435.97;;;;;;;27.37;40.10;99458.91;332231;29;1245;-72
2022/08/10 00:14:03;;;;;;;480.30;435.83;;;;;;;27.34;40.14;99454.72;329042;29;1748;-72
2022/08/10 00:14:14;;;;;;;489.85;444.98;;;;;;;27.35;40.38;99458.25;324489;29;1895;-72
2022/08/10 00:14:24;;;;;;;490.93;445.93;;;;;;;27.34;39.93;99457.41;328284;29;1402;-72
2022/08/10 00:14:35;;;;;;;494.45;449.23;;;;;;;27.33;39.50;99453.03;328128;29;2688;-72
2022/08/10 00:14:45;;;;;;;498.03;452.87;;;;;;;27.34;39.84;99451.19;329229;29;2631;-73
2022/08/10 00:14:56;;;;;;;504.45;459.15;;;;;;;27.33;39.77;99455.72;328914;29;1580;-72
2022/08/10 00:15:07;;;;;;;506.03;460.83;;;;;;;27.34;40.15;99456.56;328226;29;2783;-72
2022/08/10 00:15:19;;;;;;;500.83;455.80;;;;;;;27.33;39.94;99458.41;328764;29;2845;-72
2022/08/10 00:15:29;;;;;;;503.27;458.23;;;;;;;27.31;40.39;99456.91;325173;30;1908;-72
2022/08/10 00:15:40;;;;;;;505.60;460.55;;;;;;;27.31;40.37;99455.06;319699;30;1332;-72
2022/08/10 00:15:51;;;;;;;507.03;461.87;;;;;;;27.32;40.38;99454.06;322872;30;1350;-72
2022/08/10 00:16:02;;;;;;;507.02;461.70;;;;;;;27.31;40.04;99457.75;325324;30;1982;-72
2022/08/10 00:16:13;;;;;;;505.33;460.02;;;;;;;27.30;40.27;99453.38;323474;30;2406;-72
2022/08/10 00:16:23;;;;;;;505.67;460.47;;;;;;;27.30;40.44;99456.06;322227;30;940;-72
2022/08/10 00:16:33;;;;;;;499.13;454.23;;;;;;;27.32;40.35;99461.28;318667;30;2938;-72
2022/08/10 00:16:44;;;;;;;492.65;447.88;;;;;;;27.31;40.43;99457.75;320004;30;3998;-71
2022/08/10 00:16:54;;;;;;;491.57;446.97;;;;;;;27.30;40.70;99456.06;324614;30;801;-72
2022/08/10 00:17:04;;;;;;;493.77;449.13;;;;;;;27.28;40.38;99458.13;321502;30;3309;-72
2022/08/10 00:17:15;;;;;;;500.77;455.77;;;;;;;27.28;40.35;99458.13;320312;30;3833;-72
2022/08/10 00:17:26;;;;;;;500.47;455.47;;;;;;;27.28;40.31;99457.28;323093;30;1180;-72
2022/08/10 00:17:36;;;;;;;502.15;457.02;;;;;;;27.27;40.23;99463.66;322132;30;3487;-72
2022/08/10 00:17:47;;;;;;;498.92;453.98;;;;;;;27.27;40.67;99456.44;322641;30;2614;-72
2022/08/10 00:17:57;;;;;;;500.60;455.43;;;;;;;27.27;40.21;99455.59;321227;30;900;-72
2022/08/10 00:18:07;;;;;;;499.05;453.73;;;;;;;27.27;40.55;99456.44;316107;31;1405;-72
2022/08/10 00:18:18;;;;;;;498.50;453.00;;;;;;;27.24;40.28;99451.41;319350;30;2973;-72
2022/08/10 00:18:28;;;;;;;496.43;451.13;;;;;;;27.25;40.23;99463.00;320086;30;3850;-72
2022/08/10 00:18:39;;;;;;;488.92;444.02;;;;;;;27.24;40.50;99462.16;316537;31;822;-72
2022/08/10 00:18:49;;;;;;;496.90;451.97;;;;;;;27.25;40.53;99460.31;315761;30;3822;-72
2022/08/10 00:18:59;;;;;;;491.83;447.13;;;;;;;27.25;40.39;99450.41;316754;31;4450;-72
2022/08/10 00:19:10;;;;;;;499.83;454.93;;;;;;;27.26;40.71;99453.94;314892;31;775;-72
2022/08/10 00:19:20;;;;;;;498.70;453.97;;;;;;;27.26;40.29;99460.16;311507;31;4680;-72
2022/08/10 00:19:30;;;;;;;512.08;466.98;;;;;;;27.25;40.54;99457.63;312778;31;4733;-72
2022/08/10 00:19:41;;;;;;;511.50;466.30;;;;;;;27.26;40.55;99454.78;313878;31;1175;-72
2022/08/10 00:19:51;;;;;;;511.58;466.27;;;;;;;27.25;40.36;99458.47;311159;31;4744;-72
2022/08/10 00:20:03;;;;;;;506.80;461.53;;;;;;;27.27;40.28;99461.81;307988;31;3353;-72
2022/08/10 00:20:13;;;;;;;502.00;456.55;;;;;;;27.25;40.61;99453.09;308053;31;3485;-72
2022/08/10 00:20:24;;;;;;;496.52;451.08;;;;;;;27.25;40.57;99453.09;307523;32;796;-72
2022/08/10 00:20:34;;;;;;;499.43;454.13;;;;;;;27.27;40.74;99460.97;305794;32;4362;-72
2022/08/10 00:20:44;;;;;;;499.33;454.15;;;;;;;27.27;40.50;99451.06;304836;32;5403;-72
2022/08/10 00:20:55;;;;;;;499.00;453.83;;;;;;;27.27;40.48;99460.97;301887;32;1113;-72
2022/08/10 00:21:06;;;;;;;501.43;456.17;;;;;;;27.27;40.16;99455.59;299975;32;6040;-72
2022/08/10 00:21:16;;;;;;;498.75;453.75;;;;;;;27.28;40.28;99458.13;297408;32;6576;-72
2022/08/10 00:21:27;;;;;;;501.27;456.10;;;;;;;27.28;40.37;99460.81;298094;33;859;-72
2022/08/10 00:21:37;;;;;;;499.57;454.43;;;;;;;27.28;40.41;99452.75;299277;32;6670;-73
2022/08/10 00:21:47;;;;;;;497.88;452.85;;;;;;;27.27;40.53;99456.44;298851;32;6828;-73
2022/08/10 00:21:58;;;;;;;497.00;452.07;;;;;;;27.27;40.47;99459.13;297714;32;6464;-72
2022/08/10 00:22:10;;;;;;;493.75;448.73;;;;;;;27.27;40.90;99464.50;298884;32;3089;-72
2022/08/10 00:22:20;;;;;;;504.92;459.17;;;;;;;27.28;40.46;99452.75;297499;32;5090;-72
2022/08/10 00:22:31;;;;;;;510.33;464.33;;;;;;;27.28;40.52;99458.13;295425;33;5106;-72
2022/08/10 00:22:41;;;;;;;512.20;466.38;;;;;;;27.30;40.58;99457.91;297173;33;803;-72
2022/08/10 00:22:51;;;;;;;507.10;461.77;;;;;;;27.28;40.68;99458.13;293386;33;6476;-72
2022/08/10 00:23:02;;;;;;;500.50;455.57;;;;;;;27.27;40.29;99458.28;294218;33;7042;-72
2022/08/10 00:23:12;;;;;;;497.10;452.23;;;;;;;27.27;40.66;99456.44;295907;33;926;-72
2022/08/10 00:23:23;;;;;;;496.73;451.83;;;;;;;27.29;40.00;99453.59;292906;33;753;-72
2022/08/10 00:23:34;;;;;;;498.63;453.52;;;;;;;27.27;40.13;99452.91;289836;33;8649;-72
2022/08/10 00:23:44;;;;;;;495.75;450.92;;;;;;;27.25;39.90;99453.09;288089;33;8832;-72
2022/08/10 00:23:54;;;;;;;491.77;447.23;;;;;;;27.22;40.30;99453.44;290246;34;982;-72
2022/08/10 00:24:05;;;;;;;494.03;449.40;;;;;;;27.21;40.17;99451.75;287068;34;9903;-72
2022/08/10 00:24:15;;;;;;;498.20;453.17;;;;;;;27.24;40.39;99450.56;287222;33;8936;-71
2022/08/10 00:24:26;;;;;;;507.97;462.60;;;;;;;27.25;39.91;99454.94;289221;34;781;-71
2022/08/10 00:24:36;;;;;;;510.95;465.48;;;;;;;27.26;39.99;99452.09;287360;34;6265;-71
2022/08/10 00:24:47;;;;;;;511.53;466.13;;;;;;;27.28;39.99;99457.28;284618;34;6768;-71
2022/08/10 00:24:58;;;;;;;508.42;462.98;;;;;;;27.27;40.23;99455.59;282692;34;1297;-71
2022/08/10 00:25:08;;;;;;;506.42;460.83;;;;;;;27.28;40.11;99454.59;282592;34;1232;-72
2022/08/10 00:27:00;;;;;;;463.58;417.56;;;;;;;27.23;40.42;99452.44;2483474;27;21031;-72
2022/08/10 00:27:11;;;;;;;493.90;448.47;;;;;;;27.21;40.16;99449.06;349399;28;1304;-72
2022/08/10 00:27:21;;;;;;;496.43;450.83;;;;;;;27.22;39.89;99450.75;349024;28;832;-72
2022/08/10 00:27:32;;;;;;;498.35;452.75;;;;;;;27.22;40.31;99450.75;347720;28;1448;-72
2022/08/10 00:27:42;;;;;;;500.70;455.48;;;;;;;27.23;40.40;99452.44;346216;28;849;-72
2022/08/10 00:27:53;;;;;;;500.63;455.60;;;;;;;27.25;39.83;99460.31;346440;28;1331;-72
2022/08/10 00:28:03;;;;;;;498.85;453.95;;;;;;;27.25;40.31;99455.78;344843;28;1395;-72
2022/08/10 00:28:14;;;;;;;496.97;452.20;;;;;;;27.24;40.04;99454.09;346392;28;990;-72
2022/08/10 00:28:24;;;;;;;495.10;450.37;;;;;;;27.25;39.92;99455.78;346438;28;813;-72
2022/08/10 00:28:34;;;;;;;500.08;455.17;;;;;;;27.24;40.20;99451.41;345033;28;990;-72
2022/08/10 00:28:45;;;;;;;497.50;452.67;;;;;;;27.26;40.00;99451.25;346189;28;1569;-72
2022/08/10 00:28:55;;;;;;;493.60;448.77;;;;;;;27.26;40.42;99451.25;347498;28;1142;-72
2022/08/10 00:29:05;;;;;;;492.30;447.50;;;;;;;27.24;40.29;99455.97;346529;28;1203;-72
2022/08/10 00:29:16;;;;;;;497.70;452.80;;;;;;;27.24;40.32;99455.97;345221;28;982;-72
2022/08/10 00:29:26;;;;;;;499.58;454.67;;;;;;;27.24;40.65;99455.97;344968;28;925;-73
2022/08/10 00:29:37;;;;;;;500.97;455.90;;;;;;;27.22;40.25;99458.81;344719;28;826;-72
2022/08/10 00:29:47;;;;;;;502.23;456.92;;;;;;;27.21;40.54;99454.44;343569;28;1479;-72
2022/08/10 00:29:57;;;;;;;508.47;463.03;;;;;;;27.21;40.30;99462.50;342234;28;873;-72
2022/08/10 00:30:08;;;;;;;506.27;461.13;;;;;;;27.20;40.31;99458.16;342310;28;1101;-72
2022/08/10 00:30:19;;;;;;;497.83;452.92;;;;;;;27.19;40.38;99459.16;341715;28;1812;-73
2022/08/10 00:30:29;;;;;;;499.98;454.92;;;;;;;27.17;40.68;99461.19;343480;28;1313;-73
2022/08/10 00:30:40;;;;;;;505.80;460.57;;;;;;;27.17;40.67;99461.19;346181;28;805;-73
2022/08/10 00:30:50;;;;;;;512.65;467.20;;;;;;;27.16;40.63;99459.50;346145;28;1173;-73
2022/08/10 00:31:00;;;;;;;509.77;464.37;;;;;;;27.17;40.74;99461.19;343791;28;3166;-73
2022/08/10 00:31:11;;;;;;;503.97;458.53;;;;;;;27.18;40.36;99457.47;341463;28;4815;-73
2022/08/10 00:31:21;;;;;;;506.47;461.10;;;;;;;27.19;40.35;99458.31;343299;28;2945;-72
2022/08/10 00:31:32;;;;;;;510.37;464.63;;;;;;;27.18;40.96;99457.47;340964;28;1664;-72
2022/08/10 00:31:42;;;;;;;509.67;464.20;;;;;;;27.16;40.52;99465.72;341652;28;3046;-72
2022/08/10 00:31:52;;;;;;;503.23;457.83;;;;;;;27.16;40.64;99456.81;343264;28;940;-72
2022/08/10 00:32:03;;;;;;;500.00;454.97;;;;;;;27.16;40.90;99459.50;344510;28;814;-72
2022/08/10 00:32:13;;;;;;;505.95;460.75;;;;;;;27.15;40.77;99458.66;343443;28;1471;-72
2022/08/10 00:32:24;;;;;;;511.97;466.53;;;;;;;27.17;40.93;99453.13;347622;28;1215;-72
2022/08/10 00:32:34;;;;;;;509.02;463.63;;;;;;;27.17;40.66;99455.81;346534;28;938;-72
2022/08/10 00:32:45;;;;;;;507.33;462.07;;;;;;;27.16;40.87;99456.81;346325;28;793;-72
2022/08/10 00:32:55;;;;;;;499.75;454.75;;;;;;;27.13;40.84;99459.84;342270;28;1228;-72
2022/08/10 00:33:05;;;;;;;500.40;455.43;;;;;;;27.13;40.69;99454.47;341002;28;1085;-72
2022/08/10 00:33:16;;;;;;;503.13;458.17;;;;;;;27.14;40.78;99456.16;340982;28;1182;-72
2022/08/10 00:33:26;;;;;;;506.38;461.20;;;;;;;27.13;40.76;99463.38;339975;28;1139;-72
2022/08/10 00:33:37;;;;;;;499.07;454.27;;;;;;;27.15;41.10;99457.81;338071;29;1207;-72
2022/08/10 00:33:47;;;;;;;489.98;445.60;;;;;;;27.13;40.89;99458.00;336739;29;1219;-72
2022/08/10 00:33:58;;;;;;;485.40;441.30;;;;;;;27.14;40.44;99456.16;340177;28;934;-73
2022/08/10 00:34:08;;;;;;;489.67;445.23;;;;;;;27.14;40.66;99457.00;341648;28;1450;-72
2022/08/10 00:34:18;;;;;;;490.17;445.53;;;;;;;27.15;40.74;99457.81;340966;28;1612;-72
2022/08/10 00:34:29;;;;;;;490.98;446.20;;;;;;;27.15;40.71;99457.81;340585;28;1057;-72
2022/08/10 00:34:40;;;;;;;494.20;449.40;;;;;;;27.14;40.80;99467.75;338991;28;923;-72
2022/08/10 00:34:50;;;;;;;502.53;457.60;;;;;;;27.14;40.80;99450.78;339866;28;1413;-72
2022/08/10 00:35:01;;;;;;;499.60;454.85;;;;;;;27.15;40.67;99463.19;340787;28;1830;-73
2022/08/10 00:35:11;;;;;;;494.13;449.53;;;;;;;27.16;40.91;99459.50;340491;28;1237;-72
2022/08/10 00:35:22;;;;;;;487.98;443.58;;;;;;;27.14;40.62;99461.53;341588;28;1358;-72
2022/08/10 00:35:32;;;;;;;489.53;445.10;;;;;;;27.15;40.64;99460.50;339253;29;1101;-73
2022/08/10 00:35:43;;;;;;;493.45;449.05;;;;;;;27.14;40.96;99456.16;339436;29;1537;-73
2022/08/10 00:35:53;;;;;;;492.40;448.00;;;;;;;27.14;40.75;99456.16;338688;29;1946;-73
2022/08/10 00:36:04;;;;;;;495.38;450.80;;;;;;;27.14;40.64;99461.53;340659;28;938;-73
2022/08/10 00:36:14;;;;;;;493.17;448.50;;;;;;;27.14;40.99;99464.22;340743;28;918;-73
2022/08/10 00:36:24;;;;;;;497.98;453.05;;;;;;;27.12;40.68;99464.38;339638;29;941;-73
2022/08/10 00:36:35;;;;;;;490.20;445.50;;;;;;;27.13;40.80;99465.22;339367;28;1339;-73
2022/08/10 00:36:45;;;;;;;493.47;448.60;;;;;;;27.11;40.80;99461.88;339529;29;864;-73
2022/08/10 00:36:56;;;;;;;489.77;445.15;;;;;;;27.12;40.69;99463.53;336947;29;1492;-73
2022/08/10 00:37:06;;;;;;;496.00;451.37;;;;;;;27.11;40.80;99459.19;334637;29;1707;-73
2022/08/10 00:37:17;;;;;;;499.10;454.50;;;;;;;27.10;40.74;99460.19;333924;29;1549;-73
2022/08/10 00:37:27;;;;;;;501.23;456.57;;;;;;;27.12;41.02;99460.84;331074;29;1922;-72
2022/08/10 00:37:37;;;;;;;498.45;453.85;;;;;;;27.12;40.98;99463.53;330395;29;2122;-73
2022/08/10 00:37:48;;;;;;;493.50;449.00;;;;;;;27.11;41.09;99461.88;326681;30;1282;-72
2022/08/10 00:37:58;;;;;;;489.53;445.07;;;;;;;27.11;40.98;99467.25;332360;29;2188;-72
2022/08/10 00:38:09;;;;;;;491.90;447.30;;;;;;;27.11;40.69;99461.88;333054;29;1232;-72
2022/08/10 00:38:19;;;;;;;491.43;446.83;;;;;;;27.11;40.86;99459.19;333088;29;890;-72
2022/08/10 00:38:30;;;;;;;494.33;449.55;;;;;;;27.11;41.19;99459.19;331176;29;1368;-72
2022/08/10 00:38:41;;;;;;;491.93;447.20;;;;;;;27.11;40.95;99465.38;329493;29;1284;-72
2022/08/10 00:38:51;;;;;;;489.73;445.17;;;;;;;27.12;40.96;99463.53;328883;29;1712;-73
2022/08/10 00:39:02;;;;;;;493.98;449.25;;;;;;;27.12;40.85;99455.47;328246;29;1527;-73
2022/08/10 00:39:12;;;;;;;503.27;458.37;;;;;;;27.12;41.08;99463.53;326163;30;2126;-73
2022/08/10 00:39:22;;;;;;;507.73;462.67;;;;;;;27.13;40.65;99465.22;327067;29;2556;-73
2022/08/10 00:39:33;;;;;;;506.27;461.33;;;;;;;27.12;41.20;99469.75;328055;30;979;-73
2022/08/10 00:39:44;;;;;;;503.90;459.13;;;;;;;27.12;40.87;99464.38;326442;30;3244;-72
2022/08/10 00:39:54;;;;;;;492.15;447.70;;;;;;;27.10;41.04;99462.88;327213;30;2732;-72
2022/08/10 00:40:05;;;;;;;486.03;441.80;;;;;;;27.09;40.89;99463.88;326472;30;2502;-72
2022/08/10 00:40:16;;;;;;;491.15;446.67;;;;;;;27.07;40.92;99465.91;322568;30;4311;-72
2022/08/10 00:40:26;;;;;;;499.33;454.47;;;;;;;27.06;41.38;99459.69;321772;30;6808;-72
2022/08/10 00:40:37;;;;;;;498.63;453.52;;;;;;;27.06;41.26;99469.59;320400;30;2049;-72
2022/08/10 00:40:47;;;;;;;502.45;457.20;;;;;;;27.07;41.25;99465.91;320444;30;1785;-72
2022/08/10 00:40:57;;;;;;;509.20;463.77;;;;;;;27.08;41.49;99462.22;321333;30;3001;-72
2022/08/10 00:41:08;;;;;;;508.67;463.27;;;;;;;27.08;41.52;99473.78;320814;30;2632;-72
2022/08/10 00:41:18;;;;;;;505.65;460.52;;;;;;;27.08;41.32;99468.41;320840;30;1208;-72
2022/08/10 00:41:29;;;;;;;501.00;456.27;;;;;;;27.08;41.16;99470.28;322689;30;3348;-72
2022/08/10 00:41:39;;;;;;;503.40;458.83;;;;;;;27.05;41.29;99467.91;325261;29;3231;-72
2022/08/10 00:41:49;;;;;;;502.83;458.33;;;;;;;27.04;41.38;99466.25;326687;30;3192;-72
2022/08/10 00:42:00;;;;;;;507.40;462.57;;;;;;;27.04;41.52;99466.25;325858;30;796;-72
2022/08/10 00:42:13;;;;;;;506.35;461.45;;;;;;;27.06;41.62;99469.59;322028;30;3389;-73
2022/08/10 00:42:24;;;;;;;507.20;462.13;;;;;;;27.07;41.30;99465.91;321352;30;2947;-73
2022/08/10 00:42:34;;;;;;;511.20;466.03;;;;;;;27.08;41.33;99459.53;322418;30;896;-73
2022/08/10 00:42:44;;;;;;;506.20;461.00;;;;;;;27.08;41.54;99462.22;318466;30;925;-72
2022/08/10 00:42:55;;;;;;;503.20;458.17;;;;;;;27.10;41.06;99460.19;315089;31;2414;-73
2022/08/10 00:43:05;;;;;;;500.25;455.30;;;;;;;27.10;41.00;99460.19;313511;31;3185;-73
2022/08/10 00:43:16;;;;;;;508.07;462.97;;;;;;;27.09;41.40;99464.72;315313;31;929;-73
2022/08/10 00:43:26;;;;;;;509.95;464.88;;;;;;;27.09;41.54;99459.34;314650;31;3663;-73
2022/08/10 00:43:36;;;;;;;510.97;465.87;;;;;;;27.09;41.07;99459.34;313348;31;3805;-73
2022/08/10 00:43:47;;;;;;;499.17;454.40;;;;;;;27.08;41.01;99462.22;310689;31;1203;-73
2022/08/10 00:43:57;;;;;;;490.92;446.50;;;;;;;27.06;41.51;99466.91;308791;31;4687;-73
2022/08/10 00:44:08;;;;;;;489.07;444.70;;;;;;;27.04;41.52;99466.25;309815;31;4773;-72
2022/08/10 00:44:18;;;;;;;504.42;459.55;;;;;;;27.04;41.54;99450.13;311727;31;928;-72
2022/08/10 00:44:28;;;;;;;508.27;463.17;;;;;;;27.04;41.60;99456.34;312102;31;4739;-72
2022/08/10 00:44:41;;;;;;;510.43;464.93;;;;;;;27.06;41.21;99458.84;311507;31;2462;-72
2022/08/10 00:44:52;;;;;;;512.90;467.17;;;;;;;27.03;41.30;99461.88;311097;31;2798;-72
2022/08/10 00:45:03;;;;;;;521.42;475.67;;;;;;;27.03;41.28;99462.72;311894;31;850;-72
2022/08/10 00:45:13;;;;;;;519.35;473.80;;;;;;;27.05;41.19;99457.19;307987;31;3438;-72
2022/08/10 00:45:23;;;;;;;511.30;466.07;;;;;;;27.04;41.22;99455.50;305322;32;4261;-72
2022/08/10 00:45:34;;;;;;;505.17;460.17;;;;;;;27.04;41.49;99455.50;305005;32;892;-72
2022/08/10 00:45:45;;;;;;;501.47;456.77;;;;;;;27.06;41.31;99457.00;296049;33;1566;-72
2022/08/10 00:45:55;;;;;;;506.35;461.48;;;;;;;27.07;41.07;99460.53;297164;32;5629;-72
2022/08/10 00:46:05;;;;;;;513.50;468.43;;;;;;;27.07;41.36;99460.53;295446;32;6540;-72
2022/08/10 00:46:16;;;;;;;505.75;460.98;;;;;;;27.06;41.20;99456.16;297916;33;863;-72
2022/08/10 00:46:26;;;;;;;507.57;462.73;;;;;;;27.06;41.17;99456.16;298624;32;6482;-72
2022/08/10 00:46:37;;;;;;;504.03;459.20;;;;;;;27.07;41.33;99463.22;296368;32;6287;-72
2022/08/10 00:46:47;;;;;;;510.75;465.55;;;;;;;27.07;41.24;99457.84;292958;33;823;-72
2022/08/10 00:46:59;;;;;;;511.87;466.73;;;;;;;27.05;41.30;99458.00;297322;32;4569;-72
2022/08/10 00:47:10;;;;;;;510.33;465.27;;;;;;;27.07;41.16;99457.84;297901;32;3799;-72
2022/08/10 00:47:21;;;;;;;513.50;468.38;;;;;;;27.08;41.09;99463.03;297063;32;4863;-73
2022/08/10 00:47:31;;;;;;;516.63;471.40;;;;;;;27.08;41.01;99462.22;294711;33;1887;-73
2022/08/10 00:47:42;;;;;;;515.15;470.00;;;;;;;27.06;41.02;99462.38;292018;33;6006;-73
2022/08/10 00:47:53;;;;;;;512.37;467.27;;;;;;;27.03;40.81;99465.41;289598;33;6994;-72
2022/08/10 00:48:04;;;;;;;511.10;466.15;;;;;;;27.05;40.76;99465.25;292102;33;950;-72
2022/08/10 00:48:15;;;;;;;507.60;462.83;;;;;;;27.06;41.14;99473.13;284353;34;921;-72
2022/08/10 00:48:28;;;;;;;506.37;461.57;;;;;;;27.05;41.17;99465.25;283362;34;9000;-72
2022/08/10 00:48:39;;;;;;;509.85;465.00;;;;;;;27.00;40.92;99460.38;279313;34;9285;-72
2022/08/10 00:48:49;;;;;;;514.63;469.67;;;;;;;27.00;41.27;99464.91;278987;35;843;-72
2022/08/10 00:48:59;;;;;;;517.33;472.33;;;;;;;26.99;41.26;99460.53;271677;36;913;-72
2022/08/10 00:49:10;;;;;;;513.40;468.43;;;;;;;26.98;41.03;99462.41;270093;35;12230;-72
2022/08/10 00:49:20;;;;;;;505.73;460.93;;;;;;;26.97;41.18;99460.72;269561;35;5299;-72
2022/08/10 00:49:31;;;;;;;510.13;465.02;;;;;;;26.98;41.18;99464.25;270296;36;5113;-73
2022/08/10 00:49:41;;;;;;;512.23;466.97;;;;;;;27.00;41.33;99462.22;269576;36;7080;-73
2022/08/10 00:51:25;;;;;;;469.82;424.95;;;;;;;27.00;41.70;99464.91;2477292;27;20961;-72
2022/08/10 00:51:35;;;;;;;500.73;455.97;;;;;;;26.99;41.53;99468.59;350709;28;1635;-72
2022/08/10 00:51:46;;;;;;;505.40;460.50;;;;;;;26.97;41.54;99467.94;347839;28;794;-72
2022/08/10 00:51:56;;;;;;;507.27;462.30;;;;;;;26.95;41.53;99457.34;347259;28;1282;-72
2022/08/10 00:52:07;;;;;;;507.43;462.47;;;;;;;26.97;41.52;99467.94;346354;28;825;-72
2022/08/10 00:52:18;;;;;;;504.52;459.65;;;;;;;26.94;42.04;99462.88;346191;28;927;-72
2022/08/10 00:52:29;;;;;;;509.20;464.20;;;;;;;26.93;41.80;99469.25;347703;28;1478;-72
2022/08/10 00:52:39;;;;;;;511.63;466.43;;;;;;;26.94;42.08;99468.25;346217;28;829;-72
2022/08/10 00:52:50;;;;;;;515.03;469.80;;;;;;;26.91;41.94;99460.53;344745;28;1203;-72
2022/08/10 00:53:00;;;;;;;514.03;468.90;;;;;;;26.91;42.24;99461.38;346138;28;1310;-72
2022/08/10 00:53:11;;;;;;;516.50;471.33;;;;;;;26.92;42.07;99468.41;347443;28;1600;-72
2022/08/10 00:53:21;;;;;;;522.00;476.65;;;;;;;26.92;42.13;99467.56;348331;28;1680;-72
2022/08/10 00:53:31;;;;;;;515.07;469.93;;;;;;;26.91;42.40;99455.16;346068;28;1317;-72
2022/08/10 00:53:42;;;;;;;516.17;470.80;;;;;;;26.91;42.00;99450.63;346111;28;1330;-72
2022/08/10 00:53:52;;;;;;;514.53;469.27;;;;;;;26.88;42.40;99461.72;344789;28;1435;-72